Terminal Aerodrome Forecast
Issued by NWS Kansas City/Pleasant Hill, MO

Home | Current Version | Previous Version | Text Only | Print | Product List | Glossary On
Versions: 1 2 3 4 5 6 7 8 9 10 11 12 13 14 15 16 17 18
867
FTUS43 KEAX 272320
TAFMCI
TAF
KMCI 272320Z 2800/2824 22008KT P6SM VCSH OVC060
     FM280700 09007KT P6SM VCSH OVC035
     FM281100 09009KT 5SM -SHRA BR OVC015
     FM281800 18006KT P6SM BKN015
     FM282200 28007KT P6SM BKN015=

USA.gov is the U.S. government's official web portal to all federal, state and local government web resources and services.